sensor_id;sensor_type;location;lat;lon;timestamp;temperature;humidity
1155;DHT22;566;48.414;9.118;2022-12-05T00:02:02;0.90;87.40
1155;DHT22;566;48.414;9.118;2022-12-05T00:04:27;0.80;86.30
1155;DHT22;566;48.414;9.118;2022-12-05T00:06:53;0.80;85.60
1155;DHT22;566;48.414;9.118;2022-12-05T00:09:19;0.70;85.20
1155;DHT22;566;48.414;9.118;2022-12-05T00:11:44;0.70;84.20
1155;DHT22;566;48.414;9.118;2022-12-05T00:14:10;0.70;83.70
1155;DHT22;566;48.414;9.118;2022-12-05T00:16:38;0.80;82.70
1155;DHT22;566;48.414;9.118;2022-12-05T00:19:06;0.80;82.40
1155;DHT22;566;48.414;9.118;2022-12-05T00:21:34;0.90;83.40
1155;DHT22;566;48.414;9.118;2022-12-05T00:24:01;0.90;84.30
1155;DHT22;566;48.414;9.118;2022-12-05T00:26:27;0.90;83.30
1155;DHT22;566;48.414;9.118;2022-12-05T00:29:04;0.80;83.50
1155;DHT22;566;48.414;9.118;2022-12-05T00:31:30;0.80;83.10
1155;DHT22;566;48.414;9.118;2022-12-05T00:33:59;0.90;82.30
1155;DHT22;566;48.414;9.118;2022-12-05T00:36:28;0.90;81.60
1155;DHT22;566;48.414;9.118;2022-12-05T00:38:59;1.00;81.50
1155;DHT22;566;48.414;9.118;2022-12-05T00:41:27;1.10;81.30
1155;DHT22;566;48.414;9.118;2022-12-05T00:43:57;1.10;82.20
1155;DHT22;566;48.414;9.118;2022-12-05T00:46:25;1.10;81.20
1155;DHT22;566;48.414;9.118;2022-12-05T00:48:55;1.10;81.00
1155;DHT22;566;48.414;9.118;2022-12-05T00:51:24;1.10;81.50
1155;DHT22;566;48.414;9.118;2022-12-05T00:53:52;1.10;80.20
1155;DHT22;566;48.414;9.118;2022-12-05T00:56:21;1.10;81.30
1155;DHT22;566;48.414;9.118;2022-12-05T00:58:48;1.20;79.90
1155;DHT22;566;48.414;9.118;2022-12-05T01:01:18;1.20;80.30
1155;DHT22;566;48.414;9.118;2022-12-05T01:03:45;1.20;80.30
1155;DHT22;566;48.414;9.118;2022-12-05T01:06:12;1.30;78.70
1155;DHT22;566;48.414;9.118;2022-12-05T01:08:38;1.30;79.50
1155;DHT22;566;48.414;9.118;2022-12-05T01:11:05;1.40;78.10
1155;DHT22;566;48.414;9.118;2022-12-05T01:13:32;1.40;79.00
1155;DHT22;566;48.414;9.118;2022-12-05T01:15:58;1.40;78.60
1155;DHT22;566;48.414;9.118;2022-12-05T01:18:27;1.40;78.60
1155;DHT22;566;48.414;9.118;2022-12-05T01:20:53;1.50;78.50
1155;DHT22;566;48.414;9.118;2022-12-05T01:23:19;1.50;78.80
1155;DHT22;566;48.414;9.118;2022-12-05T01:25:47;1.50;78.30
1155;DHT22;566;48.414;9.118;2022-12-05T01:28:14;1.50;79.70
1155;DHT22;566;48.414;9.118;2022-12-05T01:30:41;1.50;80.00
1155;DHT22;566;48.414;9.118;2022-12-05T01:33:08;1.60;80.30
1155;DHT22;566;48.414;9.118;2022-12-05T01:35:35;1.60;80.40
1155;DHT22;566;48.414;9.118;2022-12-05T01:38:01;1.60;81.00
1155;DHT22;566;48.414;9.118;2022-12-05T01:40:26;1.60;81.90
1155;DHT22;566;48.414;9.118;2022-12-05T01:42:52;1.60;81.70
1155;DHT22;566;48.414;9.118;2022-12-05T01:47:52;1.50;80.10
1155;DHT22;566;48.414;9.118;2022-12-05T01:50:18;1.50;79.30
1155;DHT22;566;48.414;9.118;2022-12-05T01:52:44;1.50;79.20
1155;DHT22;566;48.414;9.118;2022-12-05T01:55:12;1.50;79.70
1155;DHT22;566;48.414;9.118;2022-12-05T01:57:39;1.50;79.20
1155;DHT22;566;48.414;9.118;2022-12-05T02:00:14;1.50;79.90
1155;DHT22;566;48.414;9.118;2022-12-05T02:02:59;1.50;79.90
1155;DHT22;566;48.414;9.118;2022-12-05T02:05:31;1.60;79.90
1155;DHT22;566;48.414;9.118;2022-12-05T02:08:01;1.70;82.00
1155;DHT22;566;48.414;9.118;2022-12-05T02:10:30;1.60;83.70
1155;DHT22;566;48.414;9.118;2022-12-05T02:13:16;1.60;83.50
1155;DHT22;566;48.414;9.118;2022-12-05T02:15:51;1.70;83.80
1155;DHT22;566;48.414;9.118;2022-12-05T02:30:23;1.80;84.40
1155;DHT22;566;48.414;9.118;2022-12-05T02:33:45;1.90;84.10
1155;DHT22;566;48.414;9.118;2022-12-05T02:38:35;2.10;83.80
1155;DHT22;566;48.414;9.118;2022-12-05T02:41:18;2.10;84.10
1155;DHT22;566;48.414;9.118;2022-12-05T02:43:59;2.20;84.50
1155;DHT22;566;48.414;9.118;2022-12-05T02:46:29;2.30;86.10
1155;DHT22;566;48.414;9.118;2022-12-05T02:48:59;2.30;87.80
1155;DHT22;566;48.414;9.118;2022-12-05T02:51:35;2.40;87.80
1155;DHT22;566;48.414;9.118;2022-12-05T02:54:07;2.40;89.30
1155;DHT22;566;48.414;9.118;2022-12-05T02:56:35;2.40;90.30
1155;DHT22;566;48.414;9.118;2022-12-05T02:59:01;2.40;90.80
1155;DHT22;566;48.414;9.118;2022-12-05T03:01:29;2.40;90.20
1155;DHT22;566;48.414;9.118;2022-12-05T03:03:57;2.50;90.50
1155;DHT22;566;48.414;9.118;2022-12-05T03:06:32;2.60;91.40
1155;DHT22;566;48.414;9.118;2022-12-05T03:09:20;2.60;92.00
1155;DHT22;566;48.414;9.118;2022-12-05T03:14:24;2.70;91.80
1155;DHT22;566;48.414;9.118;2022-12-05T03:16:55;2.60;91.40
1155;DHT22;566;48.414;9.118;2022-12-05T03:19:34;2.60;91.00
1155;DHT22;566;48.414;9.118;2022-12-05T03:22:06;2.50;91.30
1155;DHT22;566;48.414;9.118;2022-12-05T03:24:38;2.40;91.80
1155;DHT22;566;48.414;9.118;2022-12-05T03:30:07;2.20;91.10
1155;DHT22;566;48.414;9.118;2022-12-05T03:32:44;2.10;90.50
1155;DHT22;566;48.414;9.118;2022-12-05T03:40:59;1.60;88.10
1155;DHT22;566;48.414;9.118;2022-12-05T03:44:09;1.50;87.50
1155;DHT22;566;48.414;9.118;2022-12-05T03:49:26;1.40;85.10
1155;DHT22;566;48.414;9.118;2022-12-05T03:52:07;1.40;82.50
1155;DHT22;566;48.414;9.118;2022-12-05T03:54:44;1.40;82.90
1155;DHT22;566;48.414;9.118;2022-12-05T03:57:47;1.30;81.80
1155;DHT22;566;48.414;9.118;2022-12-05T04:00:17;1.30;81.00
1155;DHT22;566;48.414;9.118;2022-12-05T04:02:53;1.20;81.00
1155;DHT22;566;48.414;9.118;2022-12-05T04:05:34;1.10;81.00
1155;DHT22;566;48.414;9.118;2022-12-05T04:08:11;0.90;80.30
1155;DHT22;566;48.414;9.118;2022-12-05T04:10:40;0.80;80.40
1155;DHT22;566;48.414;9.118;2022-12-05T04:13:32;0.70;79.70
1155;DHT22;566;48.414;9.118;2022-12-05T04:16:24;0.60;79.50
1155;DHT22;566;48.414;9.118;2022-12-05T04:19:38;0.50;77.90
1155;DHT22;566;48.414;9.118;2022-12-05T04:22:24;0.40;77.20
1155;DHT22;566;48.414;9.118;2022-12-05T04:24:51;0.50;75.30
1155;DHT22;566;48.414;9.118;2022-12-05T04:30:46;0.50;75.80
1155;DHT22;566;48.414;9.118;2022-12-05T04:33:18;0.40;76.10
1155;DHT22;566;48.414;9.118;2022-12-05T04:38:36;0.20;75.60
1155;DHT22;566;48.414;9.118;2022-12-05T04:41:12;0.20;75.40
1155;DHT22;566;48.414;9.118;2022-12-05T04:43:40;0.20;73.50
1155;DHT22;566;48.414;9.118;2022-12-05T04:46:09;0.20;74.90
1155;DHT22;566;48.414;9.118;2022-12-05T04:48:38;0.20;74.20
1155;DHT22;566;48.414;9.118;2022-12-05T04:51:12;0.20;73.30
1155;DHT22;566;48.414;9.118;2022-12-05T04:53:41;0.30;72.60
1155;DHT22;566;48.414;9.118;2022-12-05T04:56:09;0.40;71.20
1155;DHT22;566;48.414;9.118;2022-12-05T04:58:37;0.40;72.50
1155;DHT22;566;48.414;9.118;2022-12-05T05:01:10;0.50;71.70
1155;DHT22;566;48.414;9.118;2022-12-05T05:03:48;0.60;71.10
1155;DHT22;566;48.414;9.118;2022-12-05T05:06:17;0.70;70.40
1155;DHT22;566;48.414;9.118;2022-12-05T05:08:52;0.80;70.30
1155;DHT22;566;48.414;9.118;2022-12-05T05:13:48;0.90;70.70
1155;DHT22;566;48.414;9.118;2022-12-05T05:16:25;1.10;69.90
1155;DHT22;566;48.414;9.118;2022-12-05T05:18:51;1.20;70.00
1155;DHT22;566;48.414;9.118;2022-12-05T05:21:24;1.30;70.10
1155;DHT22;566;48.414;9.118;2022-12-05T05:23:50;1.40;69.60
1155;DHT22;566;48.414;9.118;2022-12-05T05:26:16;1.50;70.40
1155;DHT22;566;48.414;9.118;2022-12-05T05:28:43;1.50;71.10
1155;DHT22;566;48.414;9.118;2022-12-05T05:31:09;1.60;70.50
1155;DHT22;566;48.414;9.118;2022-12-05T05:33:35;1.70;70.20
1155;DHT22;566;48.414;9.118;2022-12-05T05:36:11;1.90;71.00
1155;DHT22;566;48.414;9.118;2022-12-05T05:38:40;2.00;72.60
1155;DHT22;566;48.414;9.118;2022-12-05T05:41:18;2.10;73.50
1155;DHT22;566;48.414;9.118;2022-12-05T05:43:44;2.10;76.70
1155;DHT22;566;48.414;9.118;2022-12-05T05:46:11;1.90;80.90
1155;DHT22;566;48.414;9.118;2022-12-05T05:48:41;1.90;80.70
1155;DHT22;566;48.414;9.118;2022-12-05T05:51:09;1.90;82.30
1155;DHT22;566;48.414;9.118;2022-12-05T05:53:35;2.00;82.90
1155;DHT22;566;48.414;9.118;2022-12-05T05:56:06;2.00;83.90
1155;DHT22;566;48.414;9.118;2022-12-05T05:58:32;2.10;84.80
1155;DHT22;566;48.414;9.118;2022-12-05T06:03:28;2.20;86.30
1155;DHT22;566;48.414;9.118;2022-12-05T06:05:58;2.30;87.30
1155;DHT22;566;48.414;9.118;2022-12-05T06:08:32;2.20;87.30
1155;DHT22;566;48.414;9.118;2022-12-05T06:10:58;2.30;87.20
1155;DHT22;566;48.414;9.118;2022-12-05T06:13:23;2.50;90.50
1155;DHT22;566;48.414;9.118;2022-12-05T06:15:49;2.50;92.30
1155;DHT22;566;48.414;9.118;2022-12-05T06:18:17;2.40;92.20
1155;DHT22;566;48.414;9.118;2022-12-05T06:20:54;2.30;92.20
1155;DHT22;566;48.414;9.118;2022-12-05T06:23:20;2.30;91.70
1155;DHT22;566;48.414;9.118;2022-12-05T06:25:51;2.30;92.30
1155;DHT22;566;48.414;9.118;2022-12-05T06:28:17;2.20;91.80
1155;DHT22;566;48.414;9.118;2022-12-05T06:30:46;2.10;91.30
1155;DHT22;566;48.414;9.118;2022-12-05T06:33:13;2.00;90.40
1155;DHT22;566;48.414;9.118;2022-12-05T06:35:41;2.00;90.40
1155;DHT22;566;48.414;9.118;2022-12-05T06:38:07;1.80;89.70
1155;DHT22;566;48.414;9.118;2022-12-05T06:40:34;1.80;89.80
1155;DHT22;566;48.414;9.118;2022-12-05T06:42:59;1.70;90.00
1155;DHT22;566;48.414;9.118;2022-12-05T06:45:25;1.50;89.60
1155;DHT22;566;48.414;9.118;2022-12-05T06:47:51;1.50;88.60
1155;DHT22;566;48.414;9.118;2022-12-05T06:50:17;1.50;87.20
1155;DHT22;566;48.414;9.118;2022-12-05T06:52:43;1.50;87.20
1155;DHT22;566;48.414;9.118;2022-12-05T06:55:11;1.40;86.00
1155;DHT22;566;48.414;9.118;2022-12-05T06:57:37;1.30;86.10
1155;DHT22;566;48.414;9.118;2022-12-05T07:00:08;1.30;85.80
1155;DHT22;566;48.414;9.118;2022-12-05T07:02:53;1.30;85.20
1155;DHT22;566;48.414;9.118;2022-12-05T07:05:18;1.40;83.20
1155;DHT22;566;48.414;9.118;2022-12-05T07:07:44;1.50;83.60
1155;DHT22;566;48.414;9.118;2022-12-05T07:10:10;1.50;83.30
1155;DHT22;566;48.414;9.118;2022-12-05T07:12:36;1.60;82.10
1155;DHT22;566;48.414;9.118;2022-12-05T07:15:02;1.90;82.00
1155;DHT22;566;48.414;9.118;2022-12-05T07:17:28;2.10;83.80
1155;DHT22;566;48.414;9.118;2022-12-05T07:19:53;2.20;87.50
1155;DHT22;566;48.414;9.118;2022-12-05T07:22:21;2.30;90.50
1155;DHT22;566;48.414;9.118;2022-12-05T07:24:47;2.50;92.20
1155;DHT22;566;48.414;9.118;2022-12-05T07:27:14;2.60;93.90
1155;DHT22;566;48.414;9.118;2022-12-05T07:29:40;2.70;95.70
1155;DHT22;566;48.414;9.118;2022-12-05T07:32:06;2.80;96.20
1155;DHT22;566;48.414;9.118;2022-12-05T07:34:31;2.80;96.70
1155;DHT22;566;48.414;9.118;2022-12-05T07:36:57;2.90;97.60
1155;DHT22;566;48.414;9.118;2022-12-05T07:39:23;3.00;98.00
1155;DHT22;566;48.414;9.118;2022-12-05T07:41:48;3.00;98.00
1155;DHT22;566;48.414;9.118;2022-12-05T07:44:14;3.20;98.00
1155;DHT22;566;48.414;9.118;2022-12-05T07:46:39;3.30;98.00
1155;DHT22;566;48.414;9.118;2022-12-05T07:49:06;3.30;98.00
1155;DHT22;566;48.414;9.118;2022-12-05T07:51:32;3.40;98.00
1155;DHT22;566;48.414;9.118;2022-12-05T07:53:58;3.40;98.00
1155;DHT22;566;48.414;9.118;2022-12-05T07:56:23;3.40;98.00
1155;DHT22;566;48.414;9.118;2022-12-05T07:58:52;3.40;98.00
1155;DHT22;566;48.414;9.118;2022-12-05T08:01:22;3.40;98.00
1155;DHT22;566;48.414;9.118;2022-12-05T08:03:52;3.40;98.00
1155;DHT22;566;48.414;9.118;2022-12-05T08:06:26;3.40;98.00
1155;DHT22;566;48.414;9.118;2022-12-05T08:08:55;3.40;98.00
1155;DHT22;566;48.414;9.118;2022-12-05T08:11:29;3.50;98.00
1155;DHT22;566;48.414;9.118;2022-12-05T08:13:56;3.60;98.00
1155;DHT22;566;48.414;9.118;2022-12-05T08:16:24;3.70;98.00
1155;DHT22;566;48.414;9.118;2022-12-05T08:19:06;3.80;98.00
1155;DHT22;566;48.414;9.118;2022-12-05T08:21:32;3.90;98.00
1155;DHT22;566;48.414;9.118;2022-12-05T08:23:57;4.00;98.00
1155;DHT22;566;48.414;9.118;2022-12-05T08:26:28;4.30;98.00
1155;DHT22;566;48.414;9.118;2022-12-05T08:29:06;4.50;98.00
1155;DHT22;566;48.414;9.118;2022-12-05T08:31:35;4.60;98.00
1155;DHT22;566;48.414;9.118;2022-12-05T08:34:01;4.90;98.00
1155;DHT22;566;48.414;9.118;2022-12-05T08:36:28;5.20;98.00
1155;DHT22;566;48.414;9.118;2022-12-05T08:38:59;5.30;98.00
1155;DHT22;566;48.414;9.118;2022-12-05T08:41:25;5.30;97.00
1155;DHT22;566;48.414;9.118;2022-12-05T08:43:54;5.10;97.20
1155;DHT22;566;48.414;9.118;2022-12-05T08:46:20;5.00;97.10
1155;DHT22;566;48.414;9.118;2022-12-05T08:48:45;5.00;97.10
1155;DHT22;566;48.414;9.118;2022-12-05T08:51:14;5.00;98.00
1155;DHT22;566;48.414;9.118;2022-12-05T08:53:42;5.10;97.80
1155;DHT22;566;48.414;9.118;2022-12-05T08:56:08;5.10;97.20
1155;DHT22;566;48.414;9.118;2022-12-05T08:58:35;5.00;98.00
1155;DHT22;566;48.414;9.118;2022-12-05T09:01:08;5.00;97.80
1155;DHT22;566;48.414;9.118;2022-12-05T09:03:35;5.00;97.30
1155;DHT22;566;48.414;9.118;2022-12-05T09:06:17;5.00;97.20
1155;DHT22;566;48.414;9.118;2022-12-05T09:08:43;5.00;96.70
1155;DHT22;566;48.414;9.118;2022-12-05T09:11:20;5.10;96.70
1155;DHT22;566;48.414;9.118;2022-12-05T09:13:49;5.10;95.80
1155;DHT22;566;48.414;9.118;2022-12-05T09:16:17;5.10;95.90
1155;DHT22;566;48.414;9.118;2022-12-05T09:18:44;5.20;95.90
1155;DHT22;566;48.414;9.118;2022-12-05T09:21:19;5.30;96.40
1155;DHT22;566;48.414;9.118;2022-12-05T09:23:45;5.30;96.70
1155;DHT22;566;48.414;9.118;2022-12-05T09:26:13;5.40;97.70
1155;DHT22;566;48.414;9.118;2022-12-05T09:28:39;5.50;98.00
1155;DHT22;566;48.414;9.118;2022-12-05T09:31:07;5.40;97.70
1155;DHT22;566;48.414;9.118;2022-12-05T09:33:35;5.40;98.00
1155;DHT22;566;48.414;9.118;2022-12-05T09:36:04;5.40;98.00
1155;DHT22;566;48.414;9.118;2022-12-05T09:38:30;5.30;98.00
1155;DHT22;566;48.414;9.118;2022-12-05T09:52:27;5.20;98.00
1155;DHT22;566;48.414;9.118;2022-12-05T09:54:53;5.20;98.00
1155;DHT22;566;48.414;9.118;2022-12-05T09:57:32;5.30;98.00
1155;DHT22;566;48.414;9.118;2022-12-05T10:00:00;5.30;98.00
1155;DHT22;566;48.414;9.118;2022-12-05T10:11:00;5.50;97.00
1155;DHT22;566;48.414;9.118;2022-12-05T10:16:18;5.30;98.00
1155;DHT22;566;48.414;9.118;2022-12-05T10:18:54;5.10;98.00
1155;DHT22;566;48.414;9.118;2022-12-05T10:24:22;4.90;98.00
1155;DHT22;566;48.414;9.118;2022-12-05T10:26:56;4.90;98.00
1155;DHT22;566;48.414;9.118;2022-12-05T10:29:39;4.90;98.00
1155;DHT22;566;48.414;9.118;2022-12-05T10:32:11;4.90;98.00
1155;DHT22;566;48.414;9.118;2022-12-05T10:34:40;5.10;98.00
1155;DHT22;566;48.414;9.118;2022-12-05T10:37:10;5.50;98.00
1155;DHT22;566;48.414;9.118;2022-12-05T10:39:38;5.80;98.00
1155;DHT22;566;48.414;9.118;2022-12-05T10:42:11;6.30;97.20
1155;DHT22;566;48.414;9.118;2022-12-05T10:44:38;6.70;96.00
1155;DHT22;566;48.414;9.118;2022-12-05T10:47:04;6.80;94.50
1155;DHT22;566;48.414;9.118;2022-12-05T10:49:31;6.90;95.00
1155;DHT22;566;48.414;9.118;2022-12-05T10:51:58;6.90;94.00
1155;DHT22;566;48.414;9.118;2022-12-05T10:54:28;6.60;93.80
1155;DHT22;566;48.414;9.118;2022-12-05T10:56:54;6.30;94.60
1155;DHT22;566;48.414;9.118;2022-12-05T10:59:23;6.00;95.40
1155;DHT22;566;48.414;9.118;2022-12-05T11:01:54;6.00;95.60
1155;DHT22;566;48.414;9.118;2022-12-05T11:06:58;6.30;97.10
1155;DHT22;566;48.414;9.118;2022-12-05T11:09:32;6.30;96.30
1155;DHT22;566;48.414;9.118;2022-12-05T11:12:21;6.40;96.50
1155;DHT22;566;48.414;9.118;2022-12-05T11:14:58;6.50;95.70
1155;DHT22;566;48.414;9.118;2022-12-05T11:17:31;6.50;95.90
1155;DHT22;566;48.414;9.118;2022-12-05T11:19:57;6.60;94.70
1155;DHT22;566;48.414;9.118;2022-12-05T11:22:31;6.40;95.50
1155;DHT22;566;48.414;9.118;2022-12-05T11:24:57;6.30;95.50
1155;DHT22;566;48.414;9.118;2022-12-05T11:27:29;6.20;95.20
1155;DHT22;566;48.414;9.118;2022-12-05T11:30:04;6.20;95.50
1155;DHT22;566;48.414;9.118;2022-12-05T11:32:39;6.20;94.60
1155;DHT22;566;48.414;9.118;2022-12-05T11:35:25;6.30;95.20
1155;DHT22;566;48.414;9.118;2022-12-05T11:38:11;6.50;94.80
1155;DHT22;566;48.414;9.118;2022-12-05T11:49:13;7.10;89.90
1155;DHT22;566;48.414;9.118;2022-12-05T11:55:37;6.50;91.70
1155;DHT22;566;48.414;9.118;2022-12-05T11:58:45;6.40;92.60
1155;DHT22;566;48.414;9.118;2022-12-05T12:10:00;6.20;92.30
1155;DHT22;566;48.414;9.118;2022-12-05T12:21:38;6.10;92.20
1155;DHT22;566;48.414;9.118;2022-12-05T12:24:28;6.10;92.90
1155;DHT22;566;48.414;9.118;2022-12-05T12:27:08;6.20;91.70
1155;DHT22;566;48.414;9.118;2022-12-05T12:38:38;6.30;90.10
1155;DHT22;566;48.414;9.118;2022-12-05T12:44:30;6.40;90.40
1155;DHT22;566;48.414;9.118;2022-12-05T12:46:54;6.40;90.20
1155;DHT22;566;48.414;9.118;2022-12-05T12:52:19;6.50;90.90
1155;DHT22;566;48.414;9.118;2022-12-05T12:55:30;6.70;91.50
1155;DHT22;566;48.414;9.118;2022-12-05T13:03:32;7.30;90.40
1155;DHT22;566;48.414;9.118;2022-12-05T13:06:27;7.40;89.80
1155;DHT22;566;48.414;9.118;2022-12-05T13:10:04;7.60;88.90
1155;DHT22;566;48.414;9.118;2022-12-05T13:12:10;7.70;86.60
1155;DHT22;566;48.414;9.118;2022-12-05T13:14:37;7.40;88.10
1155;DHT22;566;48.414;9.118;2022-12-05T13:17:05;7.60;89.50
1155;DHT22;566;48.414;9.118;2022-12-05T13:19:44;7.80;88.50
1155;DHT22;566;48.414;9.118;2022-12-05T13:22:13;7.50;88.70
1155;DHT22;566;48.414;9.118;2022-12-05T13:24:39;7.30;88.80
1155;DHT22;566;48.414;9.118;2022-12-05T13:27:12;7.00;90.30
1155;DHT22;566;48.414;9.118;2022-12-05T13:29:50;6.90;91.50
1155;DHT22;566;48.414;9.118;2022-12-05T13:32:32;6.70;90.70
1155;DHT22;566;48.414;9.118;2022-12-05T13:35:10;6.30;91.20
1155;DHT22;566;48.414;9.118;2022-12-05T13:37:44;6.00;91.50
1155;DHT22;566;48.414;9.118;2022-12-05T13:40:35;5.90;92.30
1155;DHT22;566;48.414;9.118;2022-12-05T13:43:25;5.80;93.30
1155;DHT22;566;48.414;9.118;2022-12-05T13:46:10;5.70;93.00
1155;DHT22;566;48.414;9.118;2022-12-05T13:48:40;5.70;93.60
1155;DHT22;566;48.414;9.118;2022-12-05T13:51:11;5.80;93.90
1155;DHT22;566;48.414;9.118;2022-12-05T13:53:46;5.90;94.40
1155;DHT22;566;48.414;9.118;2022-12-05T13:58:44;6.20;92.60
1155;DHT22;566;48.414;9.118;2022-12-05T14:09:29;6.00;92.90
1155;DHT22;566;48.414;9.118;2022-12-05T14:26:06;5.50;93.90
1155;DHT22;566;48.414;9.118;2022-12-05T14:31:48;5.40;94.20
1155;DHT22;566;48.414;9.118;2022-12-05T14:37:01;5.20;95.40
1155;DHT22;566;48.414;9.118;2022-12-05T14:39:35;5.10;95.70
1155;DHT22;566;48.414;9.118;2022-12-05T14:42:04;5.00;95.40
1155;DHT22;566;48.414;9.118;2022-12-05T14:44:32;4.90;96.10
1155;DHT22;566;48.414;9.118;2022-12-05T14:46:59;4.80;96.30
1155;DHT22;566;48.414;9.118;2022-12-05T14:50:20;4.80;96.70
1155;DHT22;566;48.414;9.118;2022-12-05T14:55:43;4.70;97.10
1155;DHT22;566;48.414;9.118;2022-12-05T15:01:22;4.60;97.50
1155;DHT22;566;48.414;9.118;2022-12-05T15:07:21;4.50;98.00
1155;DHT22;566;48.414;9.118;2022-12-05T15:12:32;4.60;98.00
1155;DHT22;566;48.414;9.118;2022-12-05T15:17:55;4.50;98.00
1155;DHT22;566;48.414;9.118;2022-12-05T15:20:32;4.50;98.00
1155;DHT22;566;48.414;9.118;2022-12-05T15:23:01;4.50;98.00
1155;DHT22;566;48.414;9.118;2022-12-05T15:25:30;4.50;98.00
1155;DHT22;566;48.414;9.118;2022-12-05T15:27:59;4.40;98.00
1155;DHT22;566;48.414;9.118;2022-12-05T15:30:26;4.30;98.00
1155;DHT22;566;48.414;9.118;2022-12-05T15:32:52;4.20;98.00
1155;DHT22;566;48.414;9.118;2022-12-05T15:35:19;4.10;98.00
1155;DHT22;566;48.414;9.118;2022-12-05T15:37:52;4.10;98.00
1155;DHT22;566;48.414;9.118;2022-12-05T15:40:20;4.00;98.00
1155;DHT22;566;48.414;9.118;2022-12-05T15:42:51;4.00;98.00
1155;DHT22;566;48.414;9.118;2022-12-05T15:45:26;4.00;98.00
1155;DHT22;566;48.414;9.118;2022-12-05T15:47:54;4.00;98.00
1155;DHT22;566;48.414;9.118;2022-12-05T15:53:23;3.90;98.00
1155;DHT22;566;48.414;9.118;2022-12-05T15:55:56;4.00;98.00
1155;DHT22;566;48.414;9.118;2022-12-05T15:58:42;3.90;98.00
1155;DHT22;566;48.414;9.118;2022-12-05T16:01:10;3.90;98.00
1155;DHT22;566;48.414;9.118;2022-12-05T16:06:10;3.80;98.00
1155;DHT22;566;48.414;9.118;2022-12-05T16:08:43;3.80;98.00
1155;DHT22;566;48.414;9.118;2022-12-05T16:11:10;3.80;98.00
1155;DHT22;566;48.414;9.118;2022-12-05T16:13:43;3.70;98.00
1155;DHT22;566;48.414;9.118;2022-12-05T16:16:15;3.70;98.00
1155;DHT22;566;48.414;9.118;2022-12-05T16:18:48;3.70;98.00
1155;DHT22;566;48.414;9.118;2022-12-05T16:21:33;3.70;98.00
1155;DHT22;566;48.414;9.118;2022-12-05T16:24:11;3.70;98.00
1155;DHT22;566;48.414;9.118;2022-12-05T16:26:38;3.70;98.00
1155;DHT22;566;48.414;9.118;2022-12-05T16:29:04;3.60;98.00
1155;DHT22;566;48.414;9.118;2022-12-05T16:31:32;3.60;98.00
1155;DHT22;566;48.414;9.118;2022-12-05T16:34:00;3.50;98.00
1155;DHT22;566;48.414;9.118;2022-12-05T16:36:26;3.50;98.00
1155;DHT22;566;48.414;9.118;2022-12-05T16:39:00;3.50;98.00
1155;DHT22;566;48.414;9.118;2022-12-05T16:41:34;3.50;98.00
1155;DHT22;566;48.414;9.118;2022-12-05T16:44:00;3.40;98.00
1155;DHT22;566;48.414;9.118;2022-12-05T16:46:40;3.60;98.00
1155;DHT22;566;48.414;9.118;2022-12-05T16:52:21;3.40;98.00
1155;DHT22;566;48.414;9.118;2022-12-05T16:54:47;3.30;98.00
1155;DHT22;566;48.414;9.118;2022-12-05T16:57:18;3.20;98.00
1155;DHT22;566;48.414;9.118;2022-12-05T16:59:44;3.10;98.00
1155;DHT22;566;48.414;9.118;2022-12-05T17:02:15;3.20;98.00
1155;DHT22;566;48.414;9.118;2022-12-05T17:04:41;3.20;98.00
1155;DHT22;566;48.414;9.118;2022-12-05T17:07:07;3.10;98.00
1155;DHT22;566;48.414;9.118;2022-12-05T17:09:33;3.10;98.00
1155;DHT22;566;48.414;9.118;2022-12-05T17:12:06;3.20;98.00
1155;DHT22;566;48.414;9.118;2022-12-05T17:14:35;3.20;98.00
1155;DHT22;566;48.414;9.118;2022-12-05T17:17:00;3.30;98.00
1155;DHT22;566;48.414;9.118;2022-12-05T17:19:26;3.30;98.00
1155;DHT22;566;48.414;9.118;2022-12-05T17:21:53;3.30;98.00
1155;DHT22;566;48.414;9.118;2022-12-05T17:24:19;3.40;98.00
1155;DHT22;566;48.414;9.118;2022-12-05T17:26:45;3.40;98.00
1155;DHT22;566;48.414;9.118;2022-12-05T17:29:11;3.50;98.00
1155;DHT22;566;48.414;9.118;2022-12-05T17:31:37;3.60;98.00
1155;DHT22;566;48.414;9.118;2022-12-05T17:34:13;3.60;98.00
1155;DHT22;566;48.414;9.118;2022-12-05T17:36:40;3.70;98.00
1155;DHT22;566;48.414;9.118;2022-12-05T17:39:06;3.80;98.00
1155;DHT22;566;48.414;9.118;2022-12-05T17:41:33;3.80;98.00
1155;DHT22;566;48.414;9.118;2022-12-05T17:44:02;3.90;98.00
1155;DHT22;566;48.414;9.118;2022-12-05T17:46:27;3.90;98.00
1155;DHT22;566;48.414;9.118;2022-12-05T17:48:53;3.90;98.00
1155;DHT22;566;48.414;9.118;2022-12-05T17:51:19;3.90;98.00
1155;DHT22;566;48.414;9.118;2022-12-05T17:53:45;3.90;98.00
1155;DHT22;566;48.414;9.118;2022-12-05T17:56:12;3.90;98.00
1155;DHT22;566;48.414;9.118;2022-12-05T17:58:39;3.80;98.00
1155;DHT22;566;48.414;9.118;2022-12-05T18:01:05;3.80;98.00
1155;DHT22;566;48.414;9.118;2022-12-05T18:03:30;3.80;98.00
1155;DHT22;566;48.414;9.118;2022-12-05T18:05:56;3.70;98.00
1155;DHT22;566;48.414;9.118;2022-12-05T18:08:22;3.70;98.00
1155;DHT22;566;48.414;9.118;2022-12-05T18:10:48;3.60;98.00
1155;DHT22;566;48.414;9.118;2022-12-05T18:13:15;3.50;98.00
1155;DHT22;566;48.414;9.118;2022-12-05T18:15:42;3.40;98.00
1155;DHT22;566;48.414;9.118;2022-12-05T18:18:13;3.40;98.00
1155;DHT22;566;48.414;9.118;2022-12-05T18:20:39;3.30;98.00
1155;DHT22;566;48.414;9.118;2022-12-05T18:23:04;3.40;98.00
1155;DHT22;566;48.414;9.118;2022-12-05T18:25:30;3.40;98.00
1155;DHT22;566;48.414;9.118;2022-12-05T18:27:57;3.40;98.00
1155;DHT22;566;48.414;9.118;2022-12-05T18:30:23;3.30;98.00
1155;DHT22;566;48.414;9.118;2022-12-05T18:32:49;3.30;98.00
1155;DHT22;566;48.414;9.118;2022-12-05T18:35:14;3.30;98.00
1155;DHT22;566;48.414;9.118;2022-12-05T18:37:40;3.30;98.00
1155;DHT22;566;48.414;9.118;2022-12-05T18:40:07;3.30;98.00
1155;DHT22;566;48.414;9.118;2022-12-05T18:42:33;3.30;98.00
1155;DHT22;566;48.414;9.118;2022-12-05T18:44:59;3.30;98.00
1155;DHT22;566;48.414;9.118;2022-12-05T18:47:25;3.30;98.00
1155;DHT22;566;48.414;9.118;2022-12-05T18:49:51;3.30;98.00
1155;DHT22;566;48.414;9.118;2022-12-05T18:52:17;3.30;98.00
1155;DHT22;566;48.414;9.118;2022-12-05T18:54:45;3.30;98.00
1155;DHT22;566;48.414;9.118;2022-12-05T18:57:11;3.40;98.00
1155;DHT22;566;48.414;9.118;2022-12-05T18:59:37;3.40;98.00
1155;DHT22;566;48.414;9.118;2022-12-05T19:02:02;3.40;98.00
1155;DHT22;566;48.414;9.118;2022-12-05T19:04:30;3.40;98.00
1155;DHT22;566;48.414;9.118;2022-12-05T19:06:57;3.40;98.00
1155;DHT22;566;48.414;9.118;2022-12-05T19:09:26;3.30;98.00
1155;DHT22;566;48.414;9.118;2022-12-05T19:11:53;3.30;98.00
1155;DHT22;566;48.414;9.118;2022-12-05T19:14:20;3.30;98.00
1155;DHT22;566;48.414;9.118;2022-12-05T19:16:50;3.30;98.00
1155;DHT22;566;48.414;9.118;2022-12-05T19:19:19;3.30;98.00
1155;DHT22;566;48.414;9.118;2022-12-05T19:21:45;3.30;98.00
1155;DHT22;566;48.414;9.118;2022-12-05T19:24:13;3.20;98.00
1155;DHT22;566;48.414;9.118;2022-12-05T19:26:39;3.30;98.00
1155;DHT22;566;48.414;9.118;2022-12-05T19:29:05;3.30;98.00
1155;DHT22;566;48.414;9.118;2022-12-05T19:31:31;3.30;98.00
1155;DHT22;566;48.414;9.118;2022-12-05T19:34:00;3.30;98.00
1155;DHT22;566;48.414;9.118;2022-12-05T19:36:32;3.30;98.00
1155;DHT22;566;48.414;9.118;2022-12-05T19:38:59;3.30;98.00
1155;DHT22;566;48.414;9.118;2022-12-05T19:41:29;3.30;98.00
1155;DHT22;566;48.414;9.118;2022-12-05T19:43:58;3.30;98.00
1155;DHT22;566;48.414;9.118;2022-12-05T19:46:25;3.40;98.00
1155;DHT22;566;48.414;9.118;2022-12-05T19:48:55;3.30;98.00
1155;DHT22;566;48.414;9.118;2022-12-05T19:51:21;3.50;98.00
1155;DHT22;566;48.414;9.118;2022-12-05T19:53:47;3.50;98.00